createdAt,value
2019-04-11T00:00:56.136Z,65.50
2019-04-11T00:03:27.078Z,65.60
2019-04-11T00:05:57.132Z,65.40
2019-04-11T00:08:28.038Z,65.50
2019-04-11T00:10:58.040Z,65.60
2019-04-11T00:13:30.222Z,65.80
2019-04-11T00:16:01.204Z,66.00
2019-04-11T00:18:32.406Z,65.80
2019-04-11T00:21:02.500Z,66.00
2019-04-11T00:23:32.436Z,66.00
2019-04-11T00:26:02.439Z,66.00
2019-04-11T00:28:32.307Z,66.00
2019-04-11T00:31:02.353Z,66.00
2019-04-11T00:33:32.217Z,66.30
2019-04-11T00:36:02.087Z,66.10
2019-04-11T00:38:32.067Z,66.10
2019-04-11T00:41:01.943Z,66.10
2019-04-11T00:43:37.788Z,65.90
2019-04-11T00:46:04.981Z,66.00
2019-04-11T00:48:35.608Z,66.10
2019-04-11T00:51:05.506Z,66.10
2019-04-11T00:53:36.168Z,66.10
2019-04-11T00:56:06.313Z,66.10
2019-04-11T00:58:36.274Z,66.30
2019-04-11T01:01:07.191Z,66.80
2019-04-11T01:03:38.097Z,66.90
2019-04-11T01:06:08.140Z,66.70
2019-04-11T01:08:38.103Z,66.80
2019-04-11T01:11:09.798Z,67.30
2019-04-11T01:13:47.704Z,66.40
2019-04-11T01:16:18.691Z,66.50
2019-04-11T01:18:48.631Z,66.50
2019-04-11T01:21:20.027Z,66.60
2019-04-11T01:23:50.000Z,66.70
2019-04-11T01:26:19.859Z,66.50
2019-04-11T01:28:49.736Z,66.60
2019-04-11T01:31:21.827Z,66.30
2019-04-11T01:33:51.846Z,66.40
2019-04-11T01:36:22.962Z,66.20
2019-04-11T01:38:54.780Z,66.40
2019-04-11T01:41:24.862Z,66.50
2019-04-11T01:44:00.788Z,66.20
2019-04-11T01:46:26.468Z,66.00
2019-04-11T01:48:58.052Z,66.40
2019-04-11T01:51:28.007Z,66.70
2019-04-11T01:53:58.009Z,66.60
2019-04-11T01:56:27.966Z,67.40
2019-04-11T01:58:57.893Z,66.50
2019-04-11T02:01:30.630Z,66.50
2019-04-11T02:04:05.834Z,66.60
2019-04-11T02:06:36.241Z,66.90
2019-04-11T02:09:09.309Z,66.90
2019-04-11T02:11:42.209Z,66.80
2019-04-11T02:14:16.147Z,66.80
2019-04-11T02:16:43.815Z,66.80
2019-04-11T02:19:14.125Z,67.60
2019-04-11T02:21:44.228Z,67.50
2019-04-11T02:24:19.451Z,66.50
2019-04-11T02:27:06.561Z,66.30
2019-04-11T02:29:37.330Z,66.80
2019-04-11T02:32:07.639Z,66.80
2019-04-11T02:34:39.576Z,66.90
2019-04-11T02:37:09.685Z,66.80
2019-04-11T02:39:40.937Z,67.10
2019-04-11T02:42:11.452Z,67.20
2019-04-11T02:44:59.206Z,67.20
2019-04-11T02:47:21.785Z,67.50
2019-04-11T02:49:47.580Z,67.70
2019-04-11T02:52:19.460Z,67.70
2019-04-11T02:54:49.718Z,67.90
2019-04-11T02:57:21.503Z,67.90
2019-04-11T02:59:53.692Z,68.00
2019-04-11T03:02:23.798Z,67.80
2019-04-11T03:04:56.163Z,67.60
2019-04-11T03:07:26.600Z,68.20
2019-04-11T03:09:56.796Z,68.30
2019-04-11T03:12:27.604Z,68.50
2019-04-11T03:15:16.696Z,68.40
2019-04-11T03:17:35.908Z,68.20
2019-04-11T03:20:13.290Z,68.10
2019-04-11T03:22:34.400Z,68.10
2019-04-11T03:25:08.046Z,68.20
2019-04-11T03:27:37.782Z,68.20
2019-04-11T03:30:15.001Z,68.30
2019-04-11T03:38:04.238Z,67.90
2019-04-11T03:40:32.275Z,68.00
2019-04-11T03:43:04.334Z,68.10
2019-04-11T03:45:41.662Z,68.10
2019-04-11T03:48:06.064Z,68.20
2019-04-11T03:50:25.980Z,68.30
2019-04-11T03:52:59.440Z,68.60
2019-04-11T03:55:30.028Z,68.20
2019-04-11T03:58:01.268Z,68.50
2019-04-11T04:00:37.258Z,68.50
2019-04-11T04:03:06.453Z,68.90
2019-04-11T04:05:37.407Z,68.90
2019-04-11T04:10:44.184Z,68.80
2019-04-11T04:13:17.201Z,68.70
2019-04-11T04:16:00.168Z,68.70
2019-04-11T04:18:23.698Z,68.60
2019-04-11T04:21:09.155Z,68.50
2019-04-11T04:23:40.996Z,68.70
2019-04-11T04:26:12.201Z,68.60
2019-04-11T04:28:42.932Z,68.90
2019-04-11T04:31:14.045Z,69.10
2019-04-11T04:33:45.610Z,68.90
2019-04-11T04:36:17.776Z,69.10
2019-04-11T04:38:48.893Z,69.90
2019-04-11T04:41:31.073Z,68.90
2019-04-11T04:43:53.359Z,68.80
2019-04-11T04:46:39.719Z,69.20
2019-04-11T04:48:56.139Z,69.00
2019-04-11T04:51:26.775Z,69.40
2019-04-11T04:53:57.977Z,69.40
2019-04-11T04:56:31.581Z,69.30
2019-04-11T04:59:00.004Z,69.10
2019-04-11T05:01:31.595Z,69.30
2019-04-11T05:04:02.193Z,69.40
2019-04-11T05:06:32.443Z,69.40
2019-04-11T05:09:02.417Z,69.30
2019-04-11T05:11:33.997Z,69.10
2019-04-11T05:14:05.094Z,68.40
2019-04-11T05:16:35.792Z,67.90
2019-04-11T05:19:06.577Z,66.80
2019-04-11T05:21:37.178Z,66.00
2019-04-11T05:24:07.276Z,64.90
2019-04-11T05:26:37.190Z,64.00
2019-04-11T05:29:07.143Z,63.30
2019-04-11T05:31:37.076Z,62.70
2019-04-11T05:34:09.977Z,62.30
2019-04-11T05:36:40.911Z,61.40
2019-04-11T05:39:11.023Z,60.00
2019-04-11T05:41:44.765Z,59.80
2019-04-11T05:44:12.615Z,58.20
2019-04-11T05:46:53.236Z,56.40
2019-04-11T05:49:23.177Z,55.00
2019-04-11T05:51:58.785Z,53.10
2019-04-11T05:54:30.512Z,52.10
2019-04-11T05:57:03.190Z,51.10
2019-04-11T05:59:33.299Z,50.70
2019-04-11T06:02:07.686Z,50.20
2019-04-11T06:04:41.048Z,49.70
2019-04-11T06:07:23.184Z,49.50
2019-04-11T06:09:54.854Z,49.10
2019-04-11T06:12:43.515Z,48.20
2019-04-11T06:15:15.676Z,47.10
2019-04-11T06:17:48.195Z,46.80
2019-04-11T06:20:38.103Z,46.00
2019-04-11T06:23:27.891Z,46.00
2019-04-11T06:26:06.746Z,44.90
2019-04-11T06:28:36.764Z,45.70
2019-04-11T06:31:14.047Z,45.70
2019-04-11T06:33:46.886Z,46.20
2019-04-11T06:36:18.599Z,47.00
2019-04-11T06:38:56.751Z,47.10
2019-04-11T06:41:30.497Z,48.20
2019-04-11T06:44:12.274Z,49.20
2019-04-11T06:46:58.048Z,49.60
2019-04-11T06:49:34.875Z,49.00
2019-04-11T06:52:06.534Z,48.50
2019-04-11T06:54:45.363Z,48.40
2019-04-11T06:57:23.636Z,47.90
2019-04-11T06:59:53.611Z,47.70
2019-04-11T07:02:25.203Z,46.20
2019-04-11T07:04:57.920Z,46.60
2019-04-11T07:07:31.056Z,45.50
2019-04-11T07:10:04.054Z,45.60
2019-04-11T07:12:49.265Z,45.10
2019-04-11T07:15:25.112Z,44.70
2019-04-11T07:18:14.009Z,46.20
2019-04-11T07:20:52.320Z,46.50
2019-04-11T07:23:43.533Z,47.30
2019-04-11T07:26:14.403Z,47.70
2019-04-11T07:28:46.145Z,47.00
2019-04-11T07:31:21.558Z,46.90
2019-04-11T07:33:56.198Z,48.00
2019-04-11T07:36:44.101Z,49.50
2019-04-11T07:39:16.519Z,50.40
2019-04-11T07:41:48.161Z,50.50
2019-04-11T07:44:27.554Z,51.20
2019-04-11T07:47:17.038Z,50.00
2019-04-11T07:49:52.531Z,50.00
2019-04-11T07:52:25.616Z,50.00
2019-04-11T07:54:56.539Z,49.90
2019-04-11T07:57:28.428Z,49.00
2019-04-11T08:00:15.397Z,49.40
2019-04-11T08:03:04.128Z,49.70
2019-04-11T08:05:52.261Z,49.70
2019-04-11T08:08:23.766Z,50.00
2019-04-11T08:11:02.388Z,49.20
2019-04-11T08:13:52.086Z,49.30
2019-04-11T08:16:25.227Z,48.50
2019-04-11T08:19:05.786Z,47.70
2019-04-11T08:21:56.651Z,48.40
2019-04-11T08:24:40.741Z,48.60
2019-04-11T08:27:31.598Z,49.10
2019-04-11T08:30:03.380Z,48.00
2019-04-11T08:32:50.156Z,48.00
2019-04-11T08:35:28.348Z,47.70
2019-04-11T08:38:07.846Z,47.60
2019-04-11T08:40:45.550Z,47.30
2019-04-11T08:43:26.933Z,47.50
2019-04-11T08:45:58.644Z,47.70
2019-04-11T08:48:30.247Z,46.90
2019-04-11T08:51:05.161Z,46.80
2019-04-11T08:53:40.651Z,46.50
2019-04-11T08:56:13.023Z,46.00
2019-04-11T08:58:53.501Z,46.20
2019-04-11T09:01:24.764Z,45.50
2019-04-11T09:04:11.840Z,45.50
2019-04-11T09:06:40.951Z,44.80
2019-04-11T09:09:23.136Z,43.60
2019-04-11T09:11:56.246Z,42.80
2019-04-11T09:14:28.408Z,42.60
2019-04-11T09:17:00.024Z,42.50
2019-04-11T09:19:43.584Z,42.80
2019-04-11T09:22:15.200Z,41.80
2019-04-11T09:24:46.685Z,42.00
2019-04-11T09:27:24.804Z,42.20
2019-04-11T09:30:15.889Z,41.50
2019-04-11T09:32:53.476Z,41.20
2019-04-11T09:35:31.180Z,40.30
2019-04-11T09:38:02.850Z,39.90
2019-04-11T09:40:50.108Z,38.20
2019-04-11T09:43:22.175Z,37.50
2019-04-11T09:45:57.703Z,37.20
2019-04-11T09:48:35.354Z,36.40
2019-04-11T09:51:29.019Z,35.10
2019-04-11T09:54:08.782Z,34.80
2019-04-11T09:56:45.096Z,33.50
2019-04-11T09:59:16.826Z,34.20
2019-04-11T10:02:04.297Z,32.80
2019-04-11T10:04:36.072Z,31.80
2019-04-11T10:07:08.897Z,32.00
2019-04-11T10:09:56.892Z,31.10
2019-04-11T10:12:38.318Z,31.30
2019-04-11T10:15:09.355Z,31.50
2019-04-11T10:17:42.345Z,30.80
2019-04-11T10:20:18.228Z,30.20
2019-04-11T10:23:01.365Z,29.30
2019-04-11T10:25:32.359Z,29.20
2019-04-11T10:28:23.204Z,30.10
2019-04-11T10:31:04.270Z,31.50
2019-04-11T10:33:49.029Z,31.50
2019-04-11T10:36:27.245Z,30.10
2019-04-11T10:39:11.146Z,30.70
2019-04-11T10:41:51.834Z,32.70
2019-04-11T10:44:27.238Z,35.90
2019-04-11T10:47:02.010Z,36.60
2019-04-11T10:49:36.714Z,36.70
2019-04-11T10:52:24.613Z,36.80
2019-04-11T10:55:05.449Z,33.10
2019-04-11T10:57:38.199Z,30.70
2019-04-11T11:00:14.198Z,29.40
2019-04-11T11:03:04.047Z,30.00
2019-04-11T11:05:52.065Z,31.10
2019-04-11T11:08:29.603Z,31.30
2019-04-11T11:11:01.228Z,33.90
2019-04-11T11:13:45.778Z,35.00
2019-04-11T11:16:16.693Z,35.10
2019-04-11T11:19:19.771Z,36.00
2019-04-11T11:21:28.569Z,36.00
2019-04-11T11:24:06.279Z,34.10
2019-04-11T11:26:33.829Z,32.70
2019-04-11T11:29:21.001Z,31.80
2019-04-11T11:31:52.686Z,31.10
2019-04-11T11:34:36.775Z,29.20
2019-04-11T11:37:15.647Z,28.20
2019-04-11T11:40:11.389Z,28.80
2019-04-11T11:42:40.219Z,31.60
2019-04-11T11:45:30.172Z,34.70
2019-04-11T11:48:01.686Z,36.40
2019-04-11T11:50:44.735Z,37.80
2019-04-11T11:53:35.073Z,34.90
2019-04-11T11:56:07.793Z,32.80
2019-04-11T11:58:43.495Z,31.40
2019-04-11T12:01:15.721Z,32.20
2019-04-11T12:03:50.748Z,33.60
2019-04-11T12:06:23.815Z,35.00
2019-04-11T12:09:12.129Z,37.00
2019-04-11T12:11:46.436Z,37.90
2019-04-11T12:14:24.301Z,38.90
2019-04-11T12:17:01.969Z,38.10
2019-04-11T12:19:47.823Z,34.30
2019-04-11T12:22:10.476Z,32.30
2019-04-11T12:24:45.097Z,31.70
2019-04-11T12:27:16.682Z,31.20
2019-04-11T12:30:07.115Z,30.80
2019-04-11T12:32:38.889Z,32.70
2019-04-11T12:35:11.612Z,34.10
2019-04-11T12:37:45.361Z,33.90
2019-04-11T12:40:33.629Z,34.50
2019-04-11T12:43:05.300Z,34.20
2019-04-11T12:45:53.008Z,34.80
2019-04-11T12:48:24.519Z,35.80
2019-04-11T12:50:56.050Z,35.90
2019-04-11T12:53:25.922Z,34.50
2019-04-11T12:55:57.579Z,32.40
2019-04-11T12:58:29.132Z,30.20
2019-04-11T13:01:06.816Z,30.40
2019-04-11T13:03:44.408Z,29.20
2019-04-11T13:06:35.854Z,29.00
2019-04-11T13:09:27.775Z,31.00
2019-04-11T13:12:11.349Z,30.80
2019-04-11T13:14:51.993Z,29.80
2019-04-11T13:17:35.593Z,29.80
2019-04-11T13:20:24.492Z,30.50
2019-04-11T13:22:55.991Z,32.70
2019-04-11T13:25:39.886Z,34.70
2019-04-11T13:28:09.845Z,34.60
2019-04-11T13:30:53.389Z,33.60
2019-04-11T13:33:23.308Z,34.80
2019-04-11T13:36:00.948Z,36.20
2019-04-11T13:38:32.666Z,37.00
2019-04-11T13:41:20.986Z,36.80
2019-04-11T13:43:52.750Z,37.50
2019-04-11T13:46:36.428Z,37.50
2019-04-11T13:49:14.108Z,38.60
2019-04-11T13:51:45.650Z,38.20
2019-04-11T13:54:29.013Z,38.50
2019-04-11T13:57:16.607Z,38.90
2019-04-11T14:00:04.102Z,38.70
2019-04-11T14:02:51.040Z,38.50
2019-04-11T14:05:19.221Z,39.00
2019-04-11T14:07:51.871Z,39.50
2019-04-11T14:10:23.020Z,39.40
2019-04-11T14:13:03.021Z,39.20
2019-04-11T14:15:32.025Z,38.90
2019-04-11T14:18:05.040Z,39.00
2019-04-11T14:20:53.856Z,38.60
2019-04-11T14:23:25.484Z,38.30
2019-04-11T14:26:03.184Z,38.10
2019-04-11T14:28:34.779Z,38.50
2019-04-11T14:31:09.381Z,38.80
2019-04-11T14:33:40.904Z,38.10
2019-04-11T14:36:33.531Z,38.20
2019-04-11T14:39:02.033Z,38.40
2019-04-11T14:41:51.762Z,38.40
2019-04-11T14:44:22.801Z,38.50
2019-04-11T14:47:10.345Z,38.30
2019-04-11T14:49:40.773Z,38.10
2019-04-11T14:52:17.281Z,38.30
2019-04-11T14:54:49.197Z,38.30
2019-04-11T15:00:29.211Z,38.40
2019-04-11T15:03:19.135Z,37.80
2019-04-11T15:05:59.152Z,37.90
2019-04-11T15:08:49.194Z,37.80
2019-04-11T15:11:38.963Z,37.40
2019-04-11T15:14:26.833Z,38.30
2019-04-11T15:17:13.561Z,38.30
2019-04-11T15:19:45.135Z,39.30
2019-04-11T15:22:19.236Z,39.20
2019-04-11T15:24:56.728Z,39.40
2019-04-11T15:27:44.376Z,39.10
2019-04-11T15:30:18.900Z,38.80
2019-04-11T15:33:07.104Z,38.40
2019-04-11T15:35:36.973Z,38.30
2019-04-11T15:38:25.020Z,37.90
2019-04-11T15:40:56.782Z,38.50
2019-04-11T15:43:43.645Z,38.80
2019-04-11T15:46:18.254Z,39.90
2019-04-11T15:49:06.290Z,39.90
2019-04-11T15:51:37.131Z,39.90
2019-04-11T15:54:14.780Z,40.20
2019-04-11T15:56:52.482Z,40.40
2019-04-11T15:59:39.042Z,40.70
2019-04-11T16:02:16.507Z,40.70
2019-04-11T16:04:49.081Z,40.50
2019-04-11T16:07:37.752Z,40.80
2019-04-11T16:10:11.746Z,41.00
2019-04-11T16:12:58.852Z,41.00
2019-04-11T16:15:36.192Z,40.80
2019-04-11T16:18:07.729Z,40.90
2019-04-11T16:20:37.679Z,41.10
2019-04-11T16:23:12.070Z,40.80
2019-04-11T16:25:43.295Z,40.90
2019-04-11T16:28:20.952Z,41.10
2019-04-11T16:30:52.855Z,40.90
2019-04-11T16:33:40.717Z,40.80
2019-04-11T16:36:12.322Z,41.20
2019-04-11T16:38:59.191Z,41.30
2019-04-11T16:41:49.121Z,41.40
2019-04-11T16:44:24.854Z,41.80
2019-04-11T16:47:09.971Z,42.20
2019-04-11T16:49:42.205Z,42.10
2019-04-11T16:52:11.413Z,42.80
2019-04-11T16:54:41.284Z,42.20
2019-04-11T16:57:13.512Z,42.30
2019-04-11T16:59:42.789Z,42.50
2019-04-11T17:02:12.742Z,42.60
2019-04-11T17:04:42.624Z,42.70
2019-04-11T17:07:17.180Z,42.60
2019-04-11T17:09:49.004Z,42.80
2019-04-11T17:12:18.924Z,42.80
2019-04-11T17:14:48.804Z,43.20
2019-04-11T17:17:18.741Z,43.10
2019-04-11T17:19:48.676Z,43.20
2019-04-11T17:22:18.930Z,43.30
2019-04-11T17:24:49.382Z,43.60
2019-04-11T17:27:20.997Z,43.80
2019-04-11T17:29:54.615Z,43.60
2019-04-11T17:32:23.596Z,43.80
2019-04-11T17:34:54.168Z,44.00
2019-04-11T17:37:24.112Z,44.10
2019-04-11T17:39:54.067Z,44.40
2019-04-11T17:42:23.982Z,44.70
2019-04-11T17:44:54.002Z,44.90
2019-04-11T17:47:26.798Z,45.10
2019-04-11T17:49:55.575Z,45.30
2019-04-11T17:52:25.612Z,45.50
2019-04-11T17:54:55.550Z,45.40
2019-04-11T17:57:27.101Z,45.70
2019-04-11T17:59:59.195Z,45.90
2019-04-11T18:02:28.640Z,46.20
2019-04-11T18:04:59.062Z,46.20
2019-04-11T18:07:30.207Z,46.50
2019-04-11T18:10:00.142Z,46.60
2019-04-11T18:12:30.005Z,46.90
2019-04-11T18:15:02.319Z,46.90
2019-04-11T18:17:32.723Z,47.00
2019-04-11T18:20:04.505Z,47.10
2019-04-11T18:22:34.879Z,47.30
2019-04-11T18:25:06.482Z,47.60
2019-04-11T18:27:36.402Z,47.80
2019-04-11T18:30:11.717Z,47.80
2019-04-11T18:32:41.710Z,48.00
2019-04-11T18:35:13.412Z,48.10
2019-04-11T18:37:43.431Z,48.40
2019-04-11T18:40:14.490Z,48.50
2019-04-11T18:42:44.440Z,48.80
2019-04-11T18:45:33.714Z,48.90
2019-04-11T18:48:03.724Z,49.00
2019-04-11T18:50:33.744Z,49.30
2019-04-11T18:53:03.691Z,49.60
2019-04-11T18:55:33.556Z,49.70
2019-04-11T18:58:04.546Z,49.70
2019-04-11T19:00:35.825Z,50.00
2019-04-11T19:03:07.979Z,50.30
2019-04-11T19:05:38.237Z,50.50
2019-04-11T19:08:08.180Z,50.80
2019-04-11T19:10:38.112Z,51.00
2019-04-11T19:13:08.020Z,51.30
2019-04-11T19:15:37.875Z,51.50
2019-04-11T19:18:07.732Z,51.70
2019-04-11T19:20:37.744Z,51.80
2019-04-11T19:23:08.511Z,51.90
2019-04-11T19:25:42.387Z,52.20
2019-04-11T19:28:10.097Z,52.60
2019-04-11T19:30:42.331Z,52.70
2019-04-11T19:33:11.615Z,53.00
2019-04-11T19:35:43.240Z,53.40
2019-04-11T19:38:14.817Z,53.30
2019-04-11T19:40:47.104Z,53.40
2019-04-11T19:43:18.929Z,53.60
2019-04-11T19:45:50.074Z,53.90
2019-04-11T19:48:22.663Z,53.90
2019-04-11T19:50:52.140Z,53.90
2019-04-11T19:53:21.997Z,54.20
2019-04-11T19:55:56.539Z,54.30
2019-04-11T19:58:30.703Z,54.40
2019-04-11T20:01:00.721Z,54.50
2019-04-11T20:03:31.828Z,54.80
2019-04-11T20:06:01.912Z,55.20
2019-04-11T20:08:31.851Z,55.40
2019-04-11T20:11:01.984Z,55.60
2019-04-11T20:13:32.822Z,55.50
2019-04-11T20:16:02.821Z,55.70
2019-04-11T20:18:32.831Z,56.00
2019-04-11T20:21:07.296Z,56.20
2019-04-11T20:23:34.324Z,56.40
2019-04-11T20:26:04.174Z,56.60
2019-04-11T20:28:34.187Z,56.50
2019-04-11T20:31:04.103Z,56.50
2019-04-11T20:33:34.831Z,56.60
2019-04-11T20:36:04.919Z,56.60
2019-04-11T20:38:34.886Z,56.80
2019-04-11T20:41:04.883Z,57.10
2019-04-11T20:43:34.852Z,57.20
2019-04-11T20:46:04.778Z,57.20
2019-04-11T20:48:35.272Z,57.50
2019-04-11T20:51:05.431Z,57.50
2019-04-11T20:53:37.483Z,57.60
2019-04-11T20:56:09.593Z,57.50
2019-04-11T20:58:39.707Z,57.60
2019-04-11T21:01:10.220Z,57.70
2019-04-11T21:03:40.145Z,57.60
2019-04-11T21:06:10.047Z,57.50
2019-04-11T21:08:40.041Z,57.70
2019-04-11T21:11:10.083Z,57.70
2019-04-11T21:13:40.023Z,57.50
2019-04-11T21:16:09.950Z,57.40
2019-04-11T21:18:39.884Z,57.40
2019-04-11T21:21:09.771Z,57.60
2019-04-11T21:23:39.806Z,58.00
2019-04-11T21:26:09.810Z,57.80
2019-04-11T21:28:39.734Z,58.00
2019-04-11T21:31:09.596Z,57.60
2019-04-11T21:33:39.518Z,57.80
2019-04-11T21:36:09.398Z,57.80
2019-04-11T21:38:39.327Z,57.70
2019-04-11T21:41:09.221Z,57.90
2019-04-11T21:43:39.057Z,57.80
2019-04-11T21:46:08.972Z,58.00
2019-04-11T21:48:38.888Z,58.10
2019-04-11T21:51:11.313Z,57.60
2019-04-11T21:53:44.289Z,58.00
2019-04-11T21:56:12.572Z,58.10
2019-04-11T21:58:42.427Z,58.00
2019-04-11T22:01:14.815Z,58.10
2019-04-11T22:03:46.507Z,58.00
2019-04-11T22:06:16.421Z,58.10
2019-04-11T22:08:46.643Z,58.00
2019-04-11T22:11:17.652Z,57.90
2019-04-11T22:13:47.595Z,57.90
2019-04-11T22:16:17.450Z,58.30
2019-04-11T22:18:47.394Z,58.40
2019-04-11T22:21:18.355Z,58.60
2019-04-11T22:23:49.143Z,58.70
2019-04-11T22:26:19.234Z,58.50
2019-04-11T22:28:49.267Z,58.40
2019-04-11T22:31:19.205Z,58.80
2019-04-11T22:33:50.702Z,59.10
2019-04-11T22:36:20.571Z,59.10
2019-04-11T22:38:50.457Z,58.90
2019-04-11T22:41:20.300Z,58.90
2019-04-11T22:43:50.194Z,59.50
2019-04-11T22:46:21.064Z,59.10
2019-04-11T22:48:51.158Z,59.30
2019-04-11T22:51:21.093Z,59.30
2019-04-11T22:53:59.934Z,59.20
2019-04-11T22:56:22.491Z,59.10
2019-04-11T22:58:52.367Z,59.20
2019-04-11T23:01:22.241Z,59.00
2019-04-11T23:03:59.562Z,58.90
2019-04-11T23:06:29.514Z,59.40
2019-04-11T23:09:00.493Z,59.30
2019-04-11T23:11:30.524Z,59.50
2019-04-11T23:14:00.356Z,59.30
2019-04-11T23:16:30.229Z,59.60
2019-04-11T23:19:00.231Z,59.60
2019-04-11T23:21:30.221Z,59.50
2019-04-11T23:24:11.329Z,59.60
2019-04-11T23:26:31.692Z,59.90
2019-04-11T23:29:02.584Z,59.70
2019-04-11T23:31:32.640Z,59.70
2019-04-11T23:34:02.636Z,59.60
2019-04-11T23:36:32.497Z,59.90
2019-04-11T23:39:02.367Z,59.90
2019-04-11T23:41:33.892Z,60.00
2019-04-11T23:44:04.298Z,60.10
2019-04-11T23:46:34.221Z,60.20
2019-04-11T23:49:04.100Z,60.00
2019-04-11T23:51:33.984Z,59.90
2019-04-11T23:54:03.996Z,60.00
2019-04-11T23:56:33.834Z,60.10
2019-04-11T23:59:03.845Z,60.20
